createdAt,value
2022-11-11T00:03:05.245Z,1.70
2022-11-11T00:05:51.477Z,1.60
2022-11-11T00:08:38.079Z,1.20
2022-11-11T00:11:24.219Z,1.20
2022-11-11T00:14:10.344Z,1.00
2022-11-11T00:17:15.366Z,1.40
2022-11-11T00:20:24.199Z,1.10
2022-11-11T00:23:40.889Z,1.40
2022-11-11T00:26:44.050Z,1.00
2022-11-11T00:29:30.253Z,1.30
2022-11-11T00:32:31.229Z,1.70
2022-11-11T00:35:36.420Z,1.40
2022-11-11T00:38:42.160Z,1.10
2022-11-11T00:41:28.711Z,1.10
2022-11-11T00:44:15.205Z,1.30
2022-11-11T00:47:20.543Z,1.70
2022-11-11T00:50:36.061Z,1.80
2022-11-11T00:53:27.514Z,1.10
2022-11-11T00:56:14.787Z,1.10
2022-11-11T00:59:01.710Z,1.00
2022-11-11T01:01:48.248Z,1.10
2022-11-11T01:04:35.378Z,1.10
2022-11-11T01:07:21.556Z,1.20
2022-11-11T01:10:08.676Z,1.30
2022-11-11T01:13:12.373Z,2.00
2022-11-11T01:16:03.833Z,1.30
2022-11-11T01:18:52.635Z,1.20
2022-11-11T01:21:38.964Z,1.10
2022-11-11T01:24:25.698Z,1.20
2022-11-11T01:27:12.352Z,1.30
2022-11-11T01:29:58.615Z,1.50
2022-11-11T01:32:44.733Z,1.10
2022-11-11T01:35:31.639Z,1.20
2022-11-11T01:38:18.229Z,1.00
2022-11-11T01:41:42.713Z,1.10
2022-11-11T01:44:49.308Z,1.10
2022-11-11T01:48:23.802Z,1.30
2022-11-11T01:51:04.994Z,1.20
2022-11-11T01:54:00.767Z,1.20
2022-11-11T01:56:55.594Z,1.20
2022-11-11T01:59:48.434Z,1.30
2022-11-11T02:02:52.821Z,1.40
2022-11-11T02:05:43.429Z,1.30
2022-11-11T02:08:35.597Z,1.30
2022-11-11T02:11:44.172Z,1.30
2022-11-11T02:14:36.337Z,1.30
2022-11-11T02:17:26.935Z,1.90
2022-11-11T02:20:20.275Z,1.40
2022-11-11T02:23:40.889Z,1.50
2022-11-11T02:26:30.431Z,1.60
2022-11-11T02:29:21.303Z,1.30
2022-11-11T02:32:07.936Z,1.30
2022-11-11T02:34:54.274Z,1.30
2022-11-11T02:37:45.747Z,1.50
2022-11-11T02:41:12.445Z,2.20
2022-11-11T02:43:58.485Z,1.40
2022-11-11T02:46:44.912Z,2.20
2022-11-11T02:49:31.891Z,1.40
2022-11-11T02:52:17.990Z,1.50
2022-11-11T02:55:05.895Z,1.70
2022-11-11T02:57:52.679Z,1.50
2022-11-11T03:00:39.169Z,1.50
2022-11-11T03:03:26.243Z,2.00
2022-11-11T03:06:13.257Z,1.40
2022-11-11T03:08:59.753Z,1.80
2022-11-11T03:11:46.412Z,1.50
2022-11-11T03:14:33.099Z,2.00
2022-11-11T03:17:38.657Z,2.40
2022-11-11T03:20:43.908Z,1.60
2022-11-11T03:23:30.566Z,1.30
2022-11-11T03:26:16.969Z,1.40
2022-11-11T03:29:04.381Z,1.30
2022-11-11T03:31:50.666Z,2.40
2022-11-11T03:34:37.005Z,1.20
2022-11-11T03:37:42.233Z,1.40
2022-11-11T03:40:28.653Z,1.40
2022-11-11T03:43:18.559Z,1.80
2022-11-11T03:46:06.161Z,1.80
2022-11-11T03:48:52.397Z,1.40
2022-11-11T03:51:38.490Z,1.50
2022-11-11T03:54:24.859Z,1.90
2022-11-11T03:57:29.931Z,1.60
2022-11-11T04:00:20.688Z,1.40
2022-11-11T04:03:29.058Z,1.60
2022-11-11T04:06:34.342Z,1.60
2022-11-11T04:09:39.921Z,1.60
2022-11-11T04:12:27.921Z,1.50
2022-11-11T04:15:33.308Z,2.80
2022-11-11T04:18:40.028Z,1.80
2022-11-11T04:21:45.143Z,2.00
2022-11-11T04:24:50.446Z,1.50
2022-11-11T04:27:36.813Z,1.70
2022-11-11T04:30:23.144Z,2.60
2022-11-11T04:33:10.332Z,2.00
2022-11-11T04:35:56.799Z,1.40
2022-11-11T04:39:02.013Z,2.10
2022-11-11T04:42:07.237Z,1.60
2022-11-11T04:45:13.664Z,1.70
2022-11-11T04:48:09.274Z,1.40
2022-11-11T04:50:55.667Z,1.50
2022-11-11T04:53:41.813Z,1.60
2022-11-11T04:56:46.878Z,1.30
2022-11-11T04:59:33.371Z,1.70
2022-11-11T05:02:38.432Z,2.00
2022-11-11T05:05:26.203Z,1.80
2022-11-11T05:08:31.651Z,1.30
2022-11-11T05:11:19.585Z,1.70
2022-11-11T05:14:25.531Z,1.50
2022-11-11T05:17:30.926Z,2.50
2022-11-11T05:20:38.895Z,1.80
2022-11-11T05:23:48.386Z,2.10
2022-11-11T05:26:35.221Z,1.70
2022-11-11T05:29:21.640Z,1.70
2022-11-11T05:32:09.329Z,1.60
2022-11-11T05:34:56.073Z,1.60
2022-11-11T05:37:43.393Z,1.90
2022-11-11T05:40:29.597Z,1.60
2022-11-11T05:43:15.990Z,2.00
2022-11-11T05:46:02.161Z,1.70
2022-11-11T05:49:07.520Z,1.40
2022-11-11T05:51:55.703Z,1.60
2022-11-11T05:54:43.075Z,2.00
2022-11-11T05:57:29.201Z,1.60
2022-11-11T06:00:16.227Z,2.10
2022-11-11T06:03:05.903Z,1.90
2022-11-11T06:05:52.818Z,2.00
2022-11-11T06:08:40.860Z,2.00
2022-11-11T06:11:32.483Z,1.70
2022-11-11T06:14:19.544Z,1.70
2022-11-11T06:17:05.954Z,2.20
2022-11-11T06:19:52.262Z,2.00
2022-11-11T06:22:57.299Z,1.70
2022-11-11T06:26:02.307Z,1.60
2022-11-11T06:28:56.082Z,1.70
2022-11-11T06:31:43.219Z,2.30
2022-11-11T06:34:29.611Z,2.40
2022-11-11T06:37:15.745Z,2.10
2022-11-11T06:40:02.069Z,1.90
2022-11-11T06:42:48.211Z,2.20
2022-11-11T06:45:36.296Z,2.10
2022-11-11T06:48:24.901Z,1.80
2022-11-11T06:51:12.591Z,2.10
2022-11-11T06:53:59.306Z,2.00
2022-11-11T06:56:48.734Z,2.90
2022-11-11T06:59:34.973Z,1.90
2022-11-11T07:02:21.350Z,2.50
2022-11-11T07:05:08.049Z,1.90
2022-11-11T07:07:54.397Z,2.10
2022-11-11T07:10:46.171Z,1.80
2022-11-11T07:13:32.663Z,2.50
2022-11-11T07:16:18.878Z,1.80
2022-11-11T07:19:05.414Z,2.40
2022-11-11T07:21:51.621Z,2.30
2022-11-11T07:24:38.156Z,2.10
2022-11-11T07:27:24.582Z,2.20
2022-11-11T07:30:12.483Z,2.00
2022-11-11T07:32:59.109Z,2.00
2022-11-11T07:35:45.658Z,2.40
2022-11-11T07:38:32.175Z,2.40
2022-11-11T07:41:18.609Z,2.10
2022-11-11T07:44:04.879Z,2.30
2022-11-11T07:46:51.067Z,2.40
2022-11-11T07:49:37.462Z,2.10
2022-11-11T07:52:23.935Z,2.50
2022-11-11T07:55:10.203Z,2.20
2022-11-11T07:57:58.353Z,3.00
2022-11-11T08:00:44.756Z,3.60
2022-11-11T08:03:30.921Z,3.00
2022-11-11T08:06:22.325Z,3.00
2022-11-11T08:09:08.529Z,2.10
2022-11-11T08:12:16.950Z,2.40
2022-11-11T08:15:08.441Z,2.60
2022-11-11T08:17:55.169Z,2.60
2022-11-11T08:20:45.072Z,2.30
2022-11-11T08:24:22.537Z,2.30
2022-11-11T08:26:41.732Z,2.40
2022-11-11T08:29:27.869Z,2.80
2022-11-11T08:32:14.271Z,2.60
2022-11-11T08:35:00.547Z,2.60
2022-11-11T08:37:47.002Z,2.80
2022-11-11T08:40:33.323Z,2.50
2022-11-11T08:43:21.091Z,2.20
2022-11-11T08:46:07.541Z,2.60
2022-11-11T08:48:53.941Z,2.30
2022-11-11T08:51:44.654Z,2.50
2022-11-11T08:54:32.679Z,2.50
2022-11-11T08:57:19.266Z,3.20
2022-11-11T09:00:06.977Z,4.50
2022-11-11T09:02:53.349Z,3.80
2022-11-11T09:05:41.284Z,3.50
2022-11-11T09:08:27.838Z,3.00
2022-11-11T09:11:14.382Z,3.10
2022-11-11T09:14:00.816Z,2.90
2022-11-11T09:16:47.248Z,2.60
2022-11-11T09:19:33.503Z,7.50
2022-11-11T09:22:19.702Z,12.10
2022-11-11T09:25:06.864Z,21.80
2022-11-11T09:28:01.590Z,19.20
2022-11-11T09:30:48.186Z,13.60
2022-11-11T09:33:34.631Z,14.60
2022-11-11T09:36:21.536Z,12.90
2022-11-11T09:39:08.186Z,9.40
2022-11-11T09:42:30.898Z,16.50
2022-11-11T09:46:02.205Z,11.10
2022-11-11T09:49:11.883Z,16.10
2022-11-11T09:52:21.991Z,10.10
2022-11-11T09:55:35.028Z,17.30
2022-11-11T09:58:25.826Z,21.70
2022-11-11T10:01:54.008Z,13.90
2022-11-11T10:05:02.713Z,18.60
2022-11-11T10:08:07.161Z,20.60
2022-11-11T10:10:56.708Z,12.30
2022-11-11T10:13:43.203Z,20.50
2022-11-11T10:17:13.874Z,18.00
2022-11-11T10:20:24.772Z,10.00
2022-11-11T10:23:17.889Z,11.00
2022-11-11T10:26:21.396Z,9.10
2022-11-11T10:29:19.800Z,7.50
2022-11-11T10:32:23.206Z,6.10
2022-11-11T10:35:23.058Z,5.80
2022-11-11T10:38:58.642Z,4.40
2022-11-11T10:41:49.415Z,3.60
2022-11-11T10:44:36.337Z,3.30
2022-11-11T10:47:39.617Z,3.10
2022-11-11T10:50:57.518Z,3.30
2022-11-11T10:54:08.790Z,3.60
2022-11-11T10:57:15.957Z,3.20
2022-11-11T11:00:15.709Z,4.60
2022-11-11T11:03:21.646Z,10.10
2022-11-11T11:06:31.216Z,10.90
2022-11-11T11:09:37.272Z,12.80
2022-11-11T11:12:45.421Z,8.70
2022-11-11T11:15:37.782Z,5.40
2022-11-11T11:18:25.820Z,3.60
2022-11-11T11:21:12.774Z,3.20
2022-11-11T11:23:59.504Z,3.00
2022-11-11T11:26:52.336Z,3.30
2022-11-11T11:29:44.944Z,2.80
2022-11-11T11:32:32.791Z,3.30
2022-11-11T11:35:40.898Z,3.80
2022-11-11T11:38:43.477Z,3.30
2022-11-11T11:41:50.324Z,3.30
2022-11-11T11:44:39.168Z,3.60
2022-11-11T11:47:43.255Z,3.70
2022-11-11T11:50:52.545Z,4.60
2022-11-11T11:53:57.414Z,6.50
2022-11-11T11:56:50.953Z,7.70
2022-11-11T11:59:52.039Z,5.90
2022-11-11T12:03:23.275Z,3.80
2022-11-11T12:06:33.253Z,3.90
2022-11-11T12:09:26.807Z,3.40
2022-11-11T12:12:47.128Z,3.70
2022-11-11T12:16:03.726Z,3.40
2022-11-11T12:19:33.871Z,3.50
2022-11-11T12:22:57.080Z,3.40
2022-11-11T12:26:07.258Z,3.60
2022-11-11T12:29:19.616Z,3.30
2022-11-11T12:32:51.911Z,3.70
2022-11-11T12:39:26.838Z,3.20
2022-11-11T12:42:43.023Z,3.70
2022-11-11T12:46:17.695Z,3.20
2022-11-11T12:49:37.861Z,3.80
2022-11-11T12:52:57.545Z,3.90
2022-11-11T12:56:14.346Z,3.80
2022-11-11T12:59:15.344Z,3.40
2022-11-11T13:02:33.474Z,4.30
2022-11-11T13:05:29.246Z,3.60
2022-11-11T13:08:52.033Z,3.50
2022-11-11T13:12:01.527Z,4.10
2022-11-11T13:15:20.963Z,3.50
2022-11-11T13:18:25.168Z,5.50
2022-11-11T13:21:22.809Z,4.20
2022-11-11T13:24:15.809Z,4.90
2022-11-11T13:27:19.616Z,3.40
2022-11-11T13:30:40.210Z,3.80
2022-11-11T13:33:39.036Z,4.20
2022-11-11T13:36:29.447Z,3.70
2022-11-11T13:39:32.587Z,3.50
2022-11-11T13:42:28.124Z,3.50
2022-11-11T13:45:35.942Z,4.00
2022-11-11T13:48:48.663Z,3.20
2022-11-11T13:51:43.591Z,3.40
2022-11-11T13:54:42.535Z,3.30
2022-11-11T13:57:33.192Z,4.00
2022-11-11T14:00:22.683Z,3.40
2022-11-11T14:03:31.436Z,3.30
2022-11-11T14:06:18.123Z,3.10
2022-11-11T14:09:05.110Z,3.60
2022-11-11T14:12:11.831Z,3.70
2022-11-11T14:14:58.136Z,3.50
2022-11-11T14:17:45.715Z,3.40
2022-11-11T14:20:43.368Z,3.40
2022-11-11T14:23:35.419Z,3.50
2022-11-11T14:26:27.842Z,3.40
2022-11-11T14:29:20.323Z,3.90
2022-11-11T14:32:37.598Z,3.50
2022-11-11T14:35:35.126Z,3.50
2022-11-11T14:38:39.414Z,4.00
2022-11-11T14:41:40.666Z,3.50
2022-11-11T14:47:25.020Z,3.10
2022-11-11T14:50:37.966Z,3.20
2022-11-11T14:53:37.559Z,3.80
2022-11-11T14:56:27.899Z,3.50
2022-11-11T14:59:19.102Z,3.70
2022-11-11T15:05:16.445Z,4.00
2022-11-11T15:08:58.040Z,4.10
2022-11-11T15:12:04.892Z,3.70
2022-11-11T15:15:16.007Z,4.10
2022-11-11T15:18:39.099Z,3.50
2022-11-11T15:21:37.209Z,4.00
2022-11-11T15:24:41.923Z,3.50
2022-11-11T15:27:50.587Z,3.80
2022-11-11T15:31:19.754Z,3.50
2022-11-11T15:34:32.470Z,2.90
2022-11-11T15:37:22.633Z,2.90
2022-11-11T15:40:20.870Z,2.70
2022-11-11T15:43:33.494Z,3.50
2022-11-11T15:46:28.691Z,2.90
2022-11-11T15:49:47.713Z,3.20
2022-11-11T15:52:35.976Z,3.00
2022-11-11T15:55:32.482Z,2.70
2022-11-11T15:58:28.137Z,2.90
2022-11-11T16:01:16.497Z,3.00
2022-11-11T16:04:07.523Z,3.20
2022-11-11T16:06:54.133Z,3.30
2022-11-11T16:09:40.508Z,3.40
2022-11-11T16:12:43.886Z,3.60
2022-11-11T16:15:42.563Z,4.30
2022-11-11T16:18:54.271Z,3.90
2022-11-11T16:22:05.736Z,3.20
2022-11-11T16:24:53.596Z,3.10
2022-11-11T16:27:39.758Z,4.10
2022-11-11T16:30:37.993Z,4.00
2022-11-11T16:33:27.372Z,3.80
2022-11-11T16:36:13.731Z,3.30
2022-11-11T16:39:28.841Z,3.40
2022-11-11T16:42:24.823Z,4.80
2022-11-11T16:45:23.248Z,4.20
2022-11-11T16:48:33.666Z,3.90
2022-11-11T16:51:46.621Z,4.00
2022-11-11T16:54:40.361Z,3.60
2022-11-11T16:57:33.502Z,4.30
2022-11-11T17:00:23.503Z,3.70
2022-11-11T17:03:22.983Z,3.70
2022-11-11T17:06:10.061Z,3.40
2022-11-11T17:08:56.729Z,3.50
2022-11-11T17:11:45.715Z,3.50
2022-11-11T17:14:38.294Z,4.00
2022-11-11T17:17:24.937Z,4.20
2022-11-11T17:20:16.416Z,3.70
2022-11-11T17:25:57.630Z,3.60
2022-11-11T17:31:31.088Z,3.90
2022-11-11T17:34:17.195Z,3.80
2022-11-11T17:37:03.565Z,3.70
2022-11-11T17:39:50.666Z,3.70
2022-11-11T17:42:37.335Z,3.50
2022-11-11T17:45:23.965Z,4.30
2022-11-11T17:48:11.270Z,4.30
2022-11-11T17:50:58.183Z,3.80
2022-11-11T17:53:44.344Z,4.00
2022-11-11T17:56:30.790Z,4.10
2022-11-11T17:59:17.022Z,4.80
2022-11-11T18:02:03.905Z,4.70
2022-11-11T18:04:50.589Z,4.40
2022-11-11T18:07:39.133Z,4.30
2022-11-11T18:10:29.635Z,4.10
2022-11-11T18:13:15.932Z,4.80
2022-11-11T18:16:06.009Z,3.60
2022-11-11T18:18:54.478Z,4.70
2022-11-11T18:21:44.242Z,3.10
2022-11-11T18:24:30.357Z,2.70
2022-11-11T18:27:17.052Z,3.00
2022-11-11T18:30:04.321Z,2.80
2022-11-11T18:32:51.084Z,3.00
2022-11-11T18:35:37.579Z,3.30
2022-11-11T18:38:23.714Z,3.20
2022-11-11T18:41:14.692Z,3.40
2022-11-11T18:44:00.830Z,3.50
2022-11-11T18:46:47.619Z,3.20
2022-11-11T18:49:33.814Z,3.60
2022-11-11T18:52:20.050Z,3.60
2022-11-11T18:55:07.053Z,3.30
2022-11-11T18:57:53.690Z,3.80
2022-11-11T19:00:41.404Z,3.50
2022-11-11T19:03:28.187Z,3.20
2022-11-11T19:06:15.331Z,3.90
2022-11-11T19:09:06.495Z,4.70
2022-11-11T19:11:53.386Z,4.20
2022-11-11T19:14:39.710Z,3.80
2022-11-11T19:17:25.885Z,3.80
2022-11-11T19:20:12.113Z,3.40
2022-11-11T19:22:58.305Z,3.40
2022-11-11T19:25:44.554Z,3.60
2022-11-11T19:28:30.699Z,3.90
2022-11-11T19:31:21.251Z,2.90
2022-11-11T19:34:10.641Z,3.20
2022-11-11T19:36:57.185Z,3.30
2022-11-11T19:39:43.773Z,3.00
2022-11-11T19:42:29.974Z,3.30
2022-11-11T19:45:16.963Z,3.10
2022-11-11T19:48:03.731Z,3.40
2022-11-11T19:50:50.281Z,6.70
2022-11-11T19:53:37.172Z,4.70
2022-11-11T19:56:28.457Z,4.50
2022-11-11T19:59:14.558Z,3.80
2022-11-11T20:02:00.736Z,4.10
2022-11-11T20:04:46.844Z,3.90
2022-11-11T20:07:33.417Z,3.70
2022-11-11T20:10:19.813Z,3.20
2022-11-11T20:13:06.521Z,3.60
2022-11-11T20:15:53.123Z,4.00
2022-11-11T20:18:39.696Z,3.80
2022-11-11T20:21:27.728Z,3.30
2022-11-11T20:24:13.970Z,4.00
2022-11-11T20:27:00.307Z,3.60
2022-11-11T20:29:47.063Z,3.00
2022-11-11T20:32:33.305Z,3.10
2022-11-11T20:35:19.654Z,3.50
2022-11-11T20:38:06.012Z,4.30
2022-11-11T20:41:04.897Z,4.30
2022-11-11T20:43:51.462Z,3.60
2022-11-11T20:46:37.826Z,3.70
2022-11-11T20:49:24.156Z,3.50
2022-11-11T20:52:12.429Z,3.90
2022-11-11T20:54:59.250Z,6.50
2022-11-11T20:57:45.642Z,5.00
2022-11-11T21:00:32.114Z,4.80
2022-11-11T21:03:18.260Z,4.90
2022-11-11T21:06:12.269Z,4.70
2022-11-11T21:08:59.538Z,8.40
2022-11-11T21:11:45.761Z,7.90
2022-11-11T21:14:32.260Z,8.60
2022-11-11T21:17:18.579Z,6.70
2022-11-11T21:20:05.579Z,7.00
2022-11-11T21:22:52.849Z,7.10
2022-11-11T21:25:39.490Z,6.30
2022-11-11T21:28:25.723Z,6.90
2022-11-11T21:31:22.469Z,6.80
2022-11-11T21:34:12.553Z,6.90
2022-11-11T21:36:58.830Z,7.00
2022-11-11T21:39:45.139Z,6.50
2022-11-11T21:42:31.422Z,6.70
2022-11-11T21:45:17.644Z,6.50
2022-11-11T21:48:04.337Z,6.40
2022-11-11T21:50:50.899Z,5.90
2022-11-11T21:53:41.929Z,6.30
2022-11-11T21:56:30.879Z,5.70
2022-11-11T21:59:17.931Z,5.10
2022-11-11T22:02:04.045Z,5.40
2022-11-11T22:04:50.574Z,4.40
2022-11-11T22:07:36.880Z,4.50
2022-11-11T22:10:23.175Z,3.80
2022-11-11T22:13:09.838Z,4.30
2022-11-11T22:16:06.735Z,3.60
2022-11-11T22:18:56.930Z,4.10
2022-11-11T22:21:45.965Z,4.50
2022-11-11T22:24:32.402Z,5.00
2022-11-11T22:27:18.674Z,4.70
2022-11-11T22:30:05.615Z,4.20
2022-11-11T22:32:55.142Z,4.50
2022-11-11T22:35:41.801Z,4.20
2022-11-11T22:38:29.136Z,4.10
2022-11-11T22:41:23.007Z,5.10
2022-11-11T22:44:09.660Z,4.30
2022-11-11T22:46:56.565Z,4.80
2022-11-11T22:49:43.082Z,4.50
2022-11-11T22:52:29.762Z,5.10
2022-11-11T22:55:16.206Z,5.20
2022-11-11T22:58:02.421Z,4.20
2022-11-11T23:00:48.717Z,4.60
2022-11-11T23:03:37.530Z,4.60
2022-11-11T23:06:28.886Z,5.10
2022-11-11T23:09:15.558Z,4.70
2022-11-11T23:12:02.326Z,4.50
2022-11-11T23:14:49.011Z,4.70
2022-11-11T23:17:35.309Z,5.70
2022-11-11T23:20:21.625Z,5.90
2022-11-11T23:23:08.054Z,5.50
2022-11-11T23:25:55.500Z,5.70
2022-11-11T23:28:44.023Z,5.90
2022-11-11T23:31:32.641Z,6.10
2022-11-11T23:34:19.050Z,6.40
2022-11-11T23:37:08.096Z,5.80
2022-11-11T23:39:54.545Z,5.50
2022-11-11T23:42:40.736Z,6.10
2022-11-11T23:45:27.046Z,5.80
2022-11-11T23:48:13.430Z,6.60
2022-11-11T23:51:01.516Z,6.10
2022-11-11T23:53:48.245Z,7.00
2022-11-11T23:56:34.592Z,7.30
2022-11-11T23:59:21.141Z,6.40
